Latest Weather Observations for Cape Moreton

IDQ60801

Issued at 2:51 am EST Friday 21 September 2018 (issued every 10 minutes, with the page automatically refreshed every 10 minutes)

About weather observations | Map of weather stations | Latest weather observations for QLD | Other Formats
Station Details ID: 040043 Name: CAPE MORETON LIGHTHOUSE Lat: -27.03 Lon: 153.47 Height: 99.9 m
Data from the previous 72 hours. | See also: Recent months at Cape Moreton
Date/Time
EST
Temp
°C
App
Temp
°C
Dew
Point
°C
Rel
Hum
%
Delta-T
°C
Wind Press
QNH
hPa
Press
MSL
hPa
Rain since
9am
mm
Dir  Spd
km/h
Gust
km/h
Spd
kts
Gust
kts
21/02:30am 16.2 6.7 12.4 78 2.1 SSE 54 80 29 43 1019.6 1019.4 0.0
21/02:00am 16.3 6.8 12.3 77 2.2 SSE 54 72 29 39 1019.6 1019.4 0.0
21/01:30am 16.4 7.7 12.6 78 2.1 SSE 50 74 27 40 1019.6 1019.4 0.0
21/01:15am 16.7 8.6 13.2 80 2.0 S 48 69 26 37 1019.8 1019.6 0.0
21/01:00am 16.7 8.5 12.8 78 2.2 S 48 63 26 34 1019.9 1019.7 0.0
21/12:53am 16.5 8.6 12.8 79 2.1 SSE 46 65 25 35 1019.9 1019.7 0.0
21/12:30am 16.7 7.9 13.4 81 1.9 S 52 67 28 36 1019.8 1019.6 0.0
21/12:00am 17.2 9.1 14.3 83 1.7 SSE 50 69 27 37 1019.4 1019.2 0.0
 
Date/Time
EST
Temp
°C
App
Temp
°C
Dew
Point
°C
Rel
Hum
%
Delta-T
°C
Wind Press
QNH
hPa
Press
MSL
hPa
Rain since
9am
mm
Dir  Spd
km/h
Gust
km/h
Spd
kts
Gust
kts
20/11:56pm 17.3 10.0 14.4 83 1.7 SSE 46 65 25 35 1019.4 1019.2 0.0
20/11:30pm 17.5 9.0 14.2 81 1.9 S 52 65 28 35 1019.5 1019.3 0.0
20/11:03pm 17.9 11.3 15.3 85 1.5 S 44 63 24 34 1019.5 1019.3 0.0
20/11:00pm 17.8 10.7 15.1 84 1.6 S 46 63 25 34 1019.5 1019.3 0.0
20/10:41pm 18.8 12.4 15.5 81 2.0 S 43 65 23 35 1019.0 1018.8 0.0
20/10:30pm 18.3 10.8 14.0 76 2.5 S 46 59 25 32 1019.0 1018.8 0.0
20/10:17pm 18.8 14.8 16.2 85 1.6 S 32 56 17 30 1018.9 1018.7 0.0
20/10:00pm 18.5 15.6 15.2 81 1.9 SSW 24 30 13 16 1019.0 1018.8 0.0
20/09:30pm 19.6 16.5 15.7 78 2.3 SSE 26 32 14 17 1018.7 1018.5 0.0
20/09:00pm 19.6 16.9 15.7 78 2.3 SSE 24 33 13 18 1018.6 1018.4 0.0
20/08:30pm 19.8 17.7 16.3 80 2.1 SSE 22 30 12 16 1018.3 1018.0 0.0
20/08:00pm 19.6 17.1 16.1 80 2.1 SE 24 30 13 16 1017.8 1017.5 0.0
20/07:30pm 19.8 17.4 16.3 80 2.1 SE 24 30 13 16 1017.4 1017.1 0.0
20/07:00pm 19.8 17.0 16.3 80 2.1 SE 26 32 14 17 1016.5 1016.2 0.0
20/06:30pm 20.1 17.1 16.7 81 2.1 SE 28 33 15 18 1015.8 1015.5 0.0
20/06:00pm 20.0 16.9 16.6 81 2.1 SE 28 35 15 19 1015.2 1014.9 0.0
20/05:30pm 20.0 16.8 16.4 80 2.2 SE 28 32 15 17 1014.5 1014.2 0.0
20/05:00pm 20.2 16.7 16.6 80 2.2 SE 30 35 16 19 1013.8 1013.5 0.0
20/04:30pm 20.7 17.0 16.9 79 2.3 SE 32 39 17 21 1013.3 1013.0 0.0
20/04:00pm 20.6 16.7 17.0 80 2.2 SE 33 39 18 21 1012.9 1012.6 0.0
20/03:30pm 21.0 17.3 17.4 80 2.2 SE 33 39 18 21 1012.7 1012.4 0.0
20/03:00pm 21.1 17.0 17.3 79 2.3 SE 35 41 19 22 1012.3 1012.1 0.0
20/02:30pm 21.5 17.5 17.7 79 2.4 SE 35 41 19 22 1012.4 1012.2 0.0
20/02:00pm 21.9 18.0 17.9 78 2.5 SE 35 43 19 23 1012.5 1012.3 0.0
20/01:30pm 21.9 17.8 17.3 75 2.8 SE 35 41 19 22 1012.8 1012.5 0.0
20/01:00pm 22.0 18.3 16.9 73 3.1 SE 32 39 17 21 1013.2 1012.9 0.0
20/12:30pm 22.4 18.1 16.9 71 3.4 SSE 35 41 19 22 1013.4 1013.1 0.0
20/12:00pm 23.4 19.7 14.9 59 5.1 SSE 28 35 15 19 1013.7 1013.4 0.0
20/11:30am 24.4 24.0 15.3 57 5.5 SE 11 22 6 12 1014.1 1013.8 0.0
20/11:00am 22.9 21.7 16.0 65 4.2 NNW 17 20 9 11 1014.2 1013.9 0.0
20/10:30am 21.8 20.3 16.7 73 3.1 NW 20 24 11 13 1014.3 1014.0 0.0
20/10:00am 22.4 20.8 16.4 69 3.7 NW 20 28 11 15 1013.9 1013.6 0.0
20/09:30am 21.1 18.2 16.1 73 3.0 NW 26 33 14 18 1013.9 1013.6 0.0
20/09:00am 20.9 17.2 16.1 74 2.9 NNW 30 41 16 22 1013.8 1013.5 0.0
20/08:30am 20.3 16.6 15.9 76 2.6 NW 30 39 16 21 1013.8 1013.5 0.0
20/08:00am 19.7 16.2 15.6 77 2.4 NW 28 35 15 19 1013.9 1013.6 0.0
20/07:30am 19.5 16.1 15.8 79 2.2 NW 28 33 15 18 1013.9 1013.6 0.0
20/07:00am 19.5 15.7 15.8 79 2.2 NW 30 41 16 22 1013.7 1013.4 0.0
20/06:30am 19.0 14.7 15.5 80 2.1 NW 32 39 17 21 1013.6 1013.3 0.0
20/06:00am 18.6 14.3 15.3 81 1.9 NW 32 43 17 23 1013.4 1013.1 0.0
20/05:30am 18.8 15.0 15.7 82 1.8 NW 30 43 16 23 1013.2 1012.9 0.0
20/05:00am 18.6 14.5 16.0 85 1.6 NW 32 41 17 22 1013.0 1012.7 0.0
20/04:30am 18.8 16.1 16.6 87 1.3 NW 26 35 14 19 1013.0 1012.7 0.0
20/04:00am 18.6 14.5 16.0 85 1.6 NW 32 41 17 22 1012.3 1012.1 0.0
20/03:30am 18.7 15.5 16.3 86 1.4 NW 28 41 15 22 1013.0 1012.7 0.0
20/03:00am 18.7 14.2 16.5 87 1.3 NW 35 46 19 25 1012.4 1012.2 0.0
20/02:30am 19.0 14.0 17.0 88 1.2 NW 39 52 21 28 1012.4 1012.2 0.0
20/02:26am 19.0 14.0 17.0 88 1.2 NW 39 57 21 31 1012.4 1012.2 0.0
20/02:00am 19.0 12.9 16.6 86 1.4 NNW 44 54 24 29 1012.8 1012.5 0.0
20/01:30am 19.1 13.6 16.7 86 1.5 NW 41 52 22 28 1012.9 1012.6 0.0
20/01:13am 19.2 14.9 17.0 87 1.3 NNW 35 56 19 30 1013.1 1012.8 0.0
20/01:00am 19.1 13.5 16.5 85 1.6 NNW 41 54 22 29 1013.3 1013.0 0.0
20/12:30am 19.2 13.9 16.2 83 1.8 NNW 39 50 21 27 1013.4 1013.1 0.0
20/12:00am 19.4 14.1 16.2 82 1.9 NNW 39 52 21 28 1013.6 1013.3 0.0
 
Date/Time
EST
Temp
°C
App
Temp
°C
Dew
Point
°C
Rel
Hum
%
Delta-T
°C
Wind Press
QNH
hPa
Press
MSL
hPa
Rain since
9am
mm
Dir  Spd
km/h
Gust
km/h
Spd
kts
Gust
kts
19/11:30pm 19.4 14.6 15.7 79 2.2 NNW 35 48 19 26 1014.0 1013.7 0.0
19/11:00pm 19.8 14.7 14.8 73 2.9 NNW 35 46 19 25 1014.2 1013.9 0.0
19/10:30pm 20.1 15.9 17.1 83 1.8 NNW 35 48 19 26 1014.2 1013.9 0.0
19/10:00pm 20.3 14.4 16.7 80 2.2 N 43 54 23 29 1014.5 1014.2 0.0
19/09:30pm 20.3 15.1 16.5 79 2.3 NNW 39 52 21 28 1014.8 1014.5 0.0
19/09:00pm 20.3 15.5 16.5 79 2.3 N 37 48 20 26 1015.0 1014.7 0.0
19/08:30pm 20.3 15.8 16.3 78 2.4 N 35 46 19 25 1015.0 1014.7 0.0
19/08:00pm 20.1 16.1 16.1 78 2.4 N 32 43 17 23 1014.8 1014.5 0.0
19/07:30pm 20.1 16.0 15.9 77 2.5 N 32 43 17 23 1014.6 1014.3 0.0
19/07:00pm 20.1 16.8 16.1 78 2.4 NNE 28 43 15 23 1014.4 1014.1 0.0
19/06:30pm 20.0 16.5 15.6 76 2.6 N 28 39 15 21 1014.3 1014.0 0.0
19/06:00pm 20.1 16.2 15.5 75 2.7 N 30 41 16 22 1014.2 1013.9 0.0
19/05:30pm 20.0 15.5 14.8 72 3.1 NNE 32 39 17 21 1014.2 1013.9 0.0
19/05:00pm 20.1 15.7 14.0 68 3.5 NNE 30 41 16 22 1014.0 1013.7 0.0
19/04:30pm 20.4 15.7 14.3 68 3.6 NNE 32 43 17 23 1013.6 1013.3 0.0
19/04:00pm 20.7 15.8 13.6 64 4.1 NNE 32 39 17 21 1013.5 1013.2 0.0
19/03:30pm 20.9 16.1 14.1 65 4.0 NNE 32 41 17 22 1013.7 1013.4 0.0
19/03:00pm 21.2 17.3 14.4 65 4.0 NNE 28 39 15 21 1014.1 1013.8 0.0
19/02:30pm 21.5 17.1 14.2 63 4.3 NNE 30 41 16 22 1014.2 1013.9 0.0
19/02:00pm 21.8 18.5 13.9 61 4.6 N 24 37 13 20 1014.9 1014.6 0.0
19/01:30pm 21.3 17.3 14.0 63 4.3 N 28 35 15 19 1015.5 1015.2 0.0
19/01:00pm 21.4 17.6 13.6 61 4.5 N 26 33 14 18 1016.0 1015.7 0.0
19/12:30pm 21.9 18.2 13.8 60 4.7 N 26 32 14 17 1016.5 1016.2 0.0
19/12:00pm 21.4 18.2 13.1 59 4.8 N 22 30 12 16 1016.9 1016.6 0.0
19/11:30am 21.4 18.8 13.1 59 4.8 NNW 19 28 10 15 1017.5 1017.2 0.0
19/11:00am 21.6 19.7 14.3 63 4.3 NNW 17 22 9 12 1018.0 1017.7 0.0
19/10:30am 21.4 20.3 14.3 64 4.2 NNW 13 19 7 10 1018.4 1018.1 0.0
19/10:00am 20.1 18.9 14.0 68 3.5 NW 13 19 7 10 1018.8 1018.6 0.0
19/09:30am 20.4 18.7 13.6 65 3.9 NW 15 20 8 11 1019.3 1019.1 0.0
19/09:00am 19.7 18.4 13.6 68 3.5 WNW 13 19 7 10 1019.6 1019.4 0.0
19/08:30am 19.3 17.9 13.5 69 3.3 W 13 19 7 10 1019.7 1019.5 0.0
19/08:00am 18.8 16.3 13.6 72 3.0 W 19 26 10 14 1019.7 1019.5 0.0
19/07:30am 19.7 16.5 12.0 61 4.3 N 20 26 11 14 1019.5 1019.3 0.0
19/07:00am 19.6 16.6 12.6 64 3.9 N 20 30 11 16 1019.3 1019.1 0.0
19/06:30am 19.2 16.0 12.0 63 4.0 N 20 32 11 17 1018.6 1018.4 0.0
19/06:00am 18.8 15.8 12.5 67 3.5 NNE 20 30 11 16 1018.4 1018.1 0.0
19/05:30am 18.6 15.6 12.4 67 3.5 NNE 20 30 11 16 1018.3 1018.0 0.0
19/05:00am 18.3 14.8 10.9 62 4.0 NNE 20 28 11 15 1018.1 1017.8 0.0
19/04:30am 18.4 14.9 11.0 62 4.0 N 20 30 11 16 1018.0 1017.7 0.0
19/04:00am 18.3 14.0 10.7 61 4.1 NNE 24 30 13 16 1017.8 1017.5 0.0
19/03:30am 18.2 14.9 10.8 62 4.0 N 19 26 10 14 1018.0 1017.7 0.0
19/03:00am 18.2 14.7 11.0 63 3.9 NNE 20 26 11 14 1018.1 1017.8 0.0
19/02:30am 18.3 14.9 11.4 64 3.8 NNE 20 26 11 14 1018.1 1017.8 0.0
19/02:00am 18.3 14.9 11.4 64 3.8 NNE 20 26 11 14 1018.4 1018.1 0.0
19/01:30am 18.3 14.9 11.1 63 3.9 NNE 20 26 11 14 1018.7 1018.5 0.0
19/01:00am 18.3 14.6 11.4 64 3.8 NE 22 30 12 16 1018.9 1018.7 0.0
19/12:30am 18.3 14.9 11.4 64 3.8 NE 20 26 11 14 1019.5 1019.3 0.0
19/12:00am 18.3 14.6 11.6 65 3.7 NE 22 28 12 15 1019.6 1019.4 0.0
 
Date/Time
EST
Temp
°C
App
Temp
°C
Dew
Point
°C
Rel
Hum
%
Delta-T
°C
Wind Press
QNH
hPa
Press
MSL
hPa
Rain since
9am
mm
Dir  Spd
km/h
Gust
km/h
Spd
kts
Gust
kts
18/11:30pm 18.4 14.6 12.4 68 3.4 NE 24 32 13 17 1019.5 1019.3 0.0
18/11:00pm 18.3 14.2 11.4 64 3.8 NE 24 33 13 18 1019.7 1019.5 0.0
18/10:30pm 18.4 14.1 11.9 66 3.6 NNE 26 33 14 18 1019.9 1019.7 0.0
18/10:00pm 18.5 14.3 11.1 62 4.0 NE 24 30 13 16 1020.0 1019.8 0.0
18/09:30pm 18.4 14.3 11.5 64 3.8 NE 24 30 13 16 1020.0 1019.8 0.0
18/09:00pm 18.3 14.6 11.6 65 3.7 NE 22 30 12 16 1020.0 1019.8 0.0
18/08:30pm 18.2 14.3 12.0 67 3.4 ENE 24 28 13 15 1020.1 1019.9 0.0
18/08:00pm 18.2 13.6 12.2 68 3.3 ENE 28 33 15 18 1019.8 1019.6 0.0
18/07:30pm 18.3 13.9 13.0 71 3.0 ENE 28 33 15 18 1019.8 1019.6 0.0
18/07:00pm 18.4 14.3 12.8 70 3.1 ENE 26 32 14 17 1019.5 1019.3 0.0
18/06:30pm 18.3 13.8 12.7 70 3.1 ENE 28 33 15 18 1019.3 1019.1 0.0
18/06:00pm 18.4 13.9 12.6 69 3.2 ENE 28 33 15 18 1019.3 1019.1 0.0
18/05:30pm 18.5 13.7 11.8 65 3.7 ENE 28 32 15 17 1019.0 1018.8 0.0
18/05:00pm 18.7 13.6 10.5 59 4.4 ENE 28 33 15 18 1019.0 1018.8 0.0
18/04:30pm 18.9 14.4 10.2 57 4.7 E 24 32 13 17 1018.9 1018.7 0.0
18/04:00pm 19.2 15.1 10.2 56 4.8 E 22 30 12 16 1018.9 1018.7 0.0
18/03:30pm 19.7 16.1 10.4 55 5.0 E 20 26 11 14 1019.0 1018.8 0.0
18/03:00pm 20.1 16.4 10.2 53 5.3 E 20 26 11 14 1019.4 1019.2 0.0
18/02:30pm 20.3 16.9 10.4 53 5.4 E 19 20 10 11 1019.7 1019.5 0.0
18/02:00pm 20.8 18.1 10.3 51 5.7 E 15 17 8 9 1020.2 1020.0 0.0
18/01:30pm 21.1 18.3 11.2 53 5.5 E 17 20 9 11 1020.4 1020.2 0.0
18/01:00pm 21.2 17.8 10.7 51 5.8 E 19 24 10 13 1020.8 1020.6 0.0
18/12:30pm 21.3 18.5 11.3 53 5.6 E 17 20 9 11 1021.3 1021.1 0.0
18/12:00pm 22.0 19.2 11.4 51 5.9 E 17 20 9 11 1021.9 1021.7 0.0
18/11:30am 20.6 17.2 10.4 52 5.6 E 19 22 10 12 1022.3 1022.1 0.0
18/11:00am 22.5 19.4 12.2 52 5.8 E 20 26 11 14 1022.8 1022.6 0.0
18/10:30am 20.9 17.5 11.3 54 5.3 E 20 24 11 13 1023.3 1023.0 0.0
18/10:00am 22.7 19.7 12.0 50 6.0 E 19 24 10 13 1023.5 1023.2 0.0
18/09:30am 22.8 19.8 12.4 52 5.9 E 20 24 11 13 1023.6 1023.3 0.0
18/09:00am 21.5 17.9 11.8 54 5.4 ESE 22 26 12 14 1023.6 1023.3 0.0
18/08:30am 21.7 18.2 12.3 55 5.3 E 22 26 12 14 1023.5 1023.2 0.0
18/08:00am 20.6 17.4 11.8 57 4.9 ESE 20 28 11 15 1023.4 1023.1 0.0
18/07:30am 20.4 17.0 11.3 56 5.0 ESE 20 26 11 14 1023.2 1022.9 0.0
18/07:00am 19.7 16.1 12.0 61 4.3 ESE 22 28 12 15 1023.1 1022.8 0.0
18/06:30am 18.8 15.6 11.9 64 3.8 ESE 20 28 11 15 1022.6 1022.4 0.0
18/06:00am 17.6 13.3 10.7 64 3.7 ESE 24 28 13 15 1022.4 1022.2 0.0
18/05:30am 17.1 13.2 10.7 66 3.4 ESE 22 28 12 15 1022.3 1022.1 0.0
18/05:00am 17.5 12.9 11.1 66 3.5 ESE 26 32 14 17 1022.0 1021.8 0.0
18/04:30am 17.3 12.9 11.8 70 3.0 ESE 26 32 14 17 1021.7 1021.5 0.0
18/04:00am 17.3 12.5 11.6 69 3.1 ESE 28 35 15 19 1021.5 1021.3 0.0
18/03:30am 17.4 12.8 12.3 72 2.8 ESE 28 35 15 19 1021.4 1021.2 0.0
18/03:00am 17.3 12.4 12.4 73 2.7 ESE 30 35 16 19 1021.4 1021.2 0.0

Other Formats:

Comma delimited format used in spreadsheet applications
http://www.bom.gov.au/fwo/IDQ60801/IDQ60801.94594.axf

JavaScript Object Notation format (JSON) in row-major order
http://www.bom.gov.au/fwo/IDQ60801/IDQ60801.94594.json